sensor_id;sensor_type;location;lat;lon;timestamp;P1;durP1;ratioP1;P2;durP2;ratioP2
79646;SDS011;69119;41.718;21.786;2024-03-17T00:01:55;17.58;;;11.77;;
79646;SDS011;69119;41.718;21.786;2024-03-17T00:04:21;17.63;;;9.75;;
79646;SDS011;69119;41.718;21.786;2024-03-17T00:06:47;16.33;;;10.52;;
79646;SDS011;69119;41.718;21.786;2024-03-17T00:09:13;16.90;;;10.63;;
79646;SDS011;69119;41.718;21.786;2024-03-17T00:11:41;18.48;;;10.27;;
79646;SDS011;69119;41.718;21.786;2024-03-17T00:14:07;18.63;;;10.63;;
79646;SDS011;69119;41.718;21.786;2024-03-17T00:16:33;15.43;;;10.60;;
79646;SDS011;69119;41.718;21.786;2024-03-17T00:18:59;17.08;;;11.02;;
79646;SDS011;69119;41.718;21.786;2024-03-17T00:21:25;18.63;;;10.93;;
79646;SDS011;69119;41.718;21.786;2024-03-17T00:23:51;29.15;;;15.02;;
79646;SDS011;69119;41.718;21.786;2024-03-17T00:26:17;35.88;;;20.50;;
79646;SDS011;69119;41.718;21.786;2024-03-17T00:28:47;22.92;;;12.70;;
79646;SDS011;69119;41.718;21.786;2024-03-17T00:31:16;21.58;;;11.73;;
79646;SDS011;69119;41.718;21.786;2024-03-17T00:33:42;21.80;;;12.45;;
79646;SDS011;69119;41.718;21.786;2024-03-17T00:36:09;19.40;;;12.00;;
79646;SDS011;69119;41.718;21.786;2024-03-17T00:38:35;17.95;;;10.63;;
79646;SDS011;69119;41.718;21.786;2024-03-17T00:41:04;21.85;;;11.60;;
79646;SDS011;69119;41.718;21.786;2024-03-17T00:43:31;21.08;;;12.50;;
79646;SDS011;69119;41.718;21.786;2024-03-17T00:45:57;18.38;;;11.40;;
79646;SDS011;69119;41.718;21.786;2024-03-17T00:48:24;24.98;;;14.27;;
79646;SDS011;69119;41.718;21.786;2024-03-17T00:50:56;22.17;;;12.93;;
79646;SDS011;69119;41.718;21.786;2024-03-17T00:55:52;21.90;;;12.27;;
79646;SDS011;69119;41.718;21.786;2024-03-17T00:58:19;24.60;;;13.05;;
79646;SDS011;69119;41.718;21.786;2024-03-17T01:00:46;24.58;;;13.27;;
79646;SDS011;69119;41.718;21.786;2024-03-17T01:03:15;18.90;;;12.05;;
79646;SDS011;69119;41.718;21.786;2024-03-17T01:08:09;26.50;;;15.23;;
79646;SDS011;69119;41.718;21.786;2024-03-17T01:10:41;19.98;;;12.05;;
79646;SDS011;69119;41.718;21.786;2024-03-17T01:13:08;18.83;;;10.77;;
79646;SDS011;69119;41.718;21.786;2024-03-17T01:15:35;18.90;;;11.68;;
79646;SDS011;69119;41.718;21.786;2024-03-17T01:18:04;16.85;;;10.32;;
79646;SDS011;69119;41.718;21.786;2024-03-17T01:20:34;18.58;;;10.93;;
79646;SDS011;69119;41.718;21.786;2024-03-17T01:23:01;17.05;;;10.70;;
79646;SDS011;69119;41.718;21.786;2024-03-17T01:25:27;22.00;;;10.98;;
79646;SDS011;69119;41.718;21.786;2024-03-17T01:27:54;21.52;;;12.75;;
79646;SDS011;69119;41.718;21.786;2024-03-17T01:30:21;23.25;;;10.57;;
79646;SDS011;69119;41.718;21.786;2024-03-17T01:32:47;19.02;;;12.20;;
79646;SDS011;69119;41.718;21.786;2024-03-17T01:35:14;18.67;;;10.73;;
79646;SDS011;69119;41.718;21.786;2024-03-17T01:37:40;22.60;;;11.90;;
79646;SDS011;69119;41.718;21.786;2024-03-17T01:40:06;18.83;;;11.20;;
79646;SDS011;69119;41.718;21.786;2024-03-17T01:42:39;19.95;;;11.48;;
79646;SDS011;69119;41.718;21.786;2024-03-17T01:47:45;20.27;;;11.20;;
79646;SDS011;69119;41.718;21.786;2024-03-17T01:50:11;16.15;;;11.05;;
79646;SDS011;69119;41.718;21.786;2024-03-17T01:52:38;18.42;;;10.73;;
79646;SDS011;69119;41.718;21.786;2024-03-17T01:55:05;20.45;;;11.45;;
79646;SDS011;69119;41.718;21.786;2024-03-17T01:57:32;16.92;;;10.57;;
79646;SDS011;69119;41.718;21.786;2024-03-17T01:59:58;18.48;;;11.55;;
79646;SDS011;69119;41.718;21.786;2024-03-17T02:04:51;15.75;;;10.57;;
79646;SDS011;69119;41.718;21.786;2024-03-17T02:07:17;16.35;;;10.38;;
79646;SDS011;69119;41.718;21.786;2024-03-17T02:09:44;16.73;;;10.07;;
79646;SDS011;69119;41.718;21.786;2024-03-17T02:12:10;16.40;;;10.38;;
79646;SDS011;69119;41.718;21.786;2024-03-17T02:14:37;18.15;;;10.98;;
79646;SDS011;69119;41.718;21.786;2024-03-17T02:17:03;16.77;;;10.43;;
79646;SDS011;69119;41.718;21.786;2024-03-17T02:19:29;16.27;;;10.80;;
79646;SDS011;69119;41.718;21.786;2024-03-17T02:21:55;20.73;;;12.52;;
79646;SDS011;69119;41.718;21.786;2024-03-17T02:24:21;18.88;;;11.18;;
79646;SDS011;69119;41.718;21.786;2024-03-17T02:26:47;16.98;;;10.60;;
79646;SDS011;69119;41.718;21.786;2024-03-17T02:29:13;15.90;;;10.77;;
79646;SDS011;69119;41.718;21.786;2024-03-17T02:31:39;17.90;;;11.02;;
79646;SDS011;69119;41.718;21.786;2024-03-17T02:34:06;16.88;;;10.57;;
79646;SDS011;69119;41.718;21.786;2024-03-17T02:36:32;17.35;;;11.85;;
79646;SDS011;69119;41.718;21.786;2024-03-17T02:38:58;17.85;;;11.35;;
79646;SDS011;69119;41.718;21.786;2024-03-17T02:41:43;25.00;;;14.55;;
79646;SDS011;69119;41.718;21.786;2024-03-17T02:44:09;25.38;;;14.43;;
79646;SDS011;69119;41.718;21.786;2024-03-17T02:46:36;22.92;;;13.25;;
79646;SDS011;69119;41.718;21.786;2024-03-17T02:49:03;25.30;;;13.65;;
79646;SDS011;69119;41.718;21.786;2024-03-17T02:51:30;23.05;;;13.70;;
79646;SDS011;69119;41.718;21.786;2024-03-17T02:53:56;22.92;;;13.30;;
79646;SDS011;69119;41.718;21.786;2024-03-17T02:56:24;22.77;;;13.25;;
79646;SDS011;69119;41.718;21.786;2024-03-17T02:58:50;22.25;;;14.25;;
79646;SDS011;69119;41.718;21.786;2024-03-17T03:01:17;22.48;;;12.32;;
79646;SDS011;69119;41.718;21.786;2024-03-17T03:03:44;22.38;;;12.82;;
79646;SDS011;69119;41.718;21.786;2024-03-17T03:06:10;20.60;;;13.35;;
79646;SDS011;69119;41.718;21.786;2024-03-17T03:08:37;19.33;;;11.90;;
79646;SDS011;69119;41.718;21.786;2024-03-17T03:11:05;19.00;;;12.00;;
79646;SDS011;69119;41.718;21.786;2024-03-17T03:13:31;20.08;;;12.02;;
79646;SDS011;69119;41.718;21.786;2024-03-17T03:15:57;18.60;;;11.30;;
79646;SDS011;69119;41.718;21.786;2024-03-17T03:18:24;18.05;;;10.02;;
79646;SDS011;69119;41.718;21.786;2024-03-17T03:20:53;16.05;;;10.07;;
79646;SDS011;69119;41.718;21.786;2024-03-17T03:23:19;16.17;;;9.10;;
79646;SDS011;69119;41.718;21.786;2024-03-17T03:25:46;16.70;;;10.25;;
79646;SDS011;69119;41.718;21.786;2024-03-17T03:28:13;17.00;;;10.85;;
79646;SDS011;69119;41.718;21.786;2024-03-17T03:30:39;18.58;;;11.25;;
79646;SDS011;69119;41.718;21.786;2024-03-17T03:33:05;20.00;;;11.55;;
79646;SDS011;69119;41.718;21.786;2024-03-17T03:35:32;17.42;;;10.23;;
79646;SDS011;69119;41.718;21.786;2024-03-17T03:37:58;18.77;;;10.50;;
79646;SDS011;69119;41.718;21.786;2024-03-17T03:40:26;17.77;;;10.90;;
79646;SDS011;69119;41.718;21.786;2024-03-17T03:42:52;21.75;;;11.98;;
79646;SDS011;69119;41.718;21.786;2024-03-17T03:45:18;22.48;;;12.40;;
79646;SDS011;69119;41.718;21.786;2024-03-17T03:47:45;20.17;;;11.15;;
79646;SDS011;69119;41.718;21.786;2024-03-17T03:52:38;21.17;;;12.02;;
79646;SDS011;69119;41.718;21.786;2024-03-17T03:55:08;17.88;;;10.90;;
79646;SDS011;69119;41.718;21.786;2024-03-17T03:57:38;16.52;;;10.38;;
79646;SDS011;69119;41.718;21.786;2024-03-17T04:00:04;17.95;;;12.00;;
79646;SDS011;69119;41.718;21.786;2024-03-17T04:02:43;20.02;;;11.15;;
79646;SDS011;69119;41.718;21.786;2024-03-17T04:05:09;18.65;;;10.43;;
79646;SDS011;69119;41.718;21.786;2024-03-17T04:07:36;21.60;;;12.48;;
79646;SDS011;69119;41.718;21.786;2024-03-17T04:12:28;18.15;;;10.95;;
79646;SDS011;69119;41.718;21.786;2024-03-17T04:14:58;20.00;;;12.00;;
79646;SDS011;69119;41.718;21.786;2024-03-17T04:17:24;22.85;;;11.57;;
79646;SDS011;69119;41.718;21.786;2024-03-17T04:19:50;21.30;;;12.52;;
79646;SDS011;69119;41.718;21.786;2024-03-17T04:22:17;22.27;;;12.43;;
79646;SDS011;69119;41.718;21.786;2024-03-17T04:24:43;24.65;;;17.05;;
79646;SDS011;69119;41.718;21.786;2024-03-17T04:27:10;23.27;;;18.13;;
79646;SDS011;69119;41.718;21.786;2024-03-17T04:29:36;22.08;;;13.88;;
79646;SDS011;69119;41.718;21.786;2024-03-17T04:32:02;17.45;;;12.20;;
79646;SDS011;69119;41.718;21.786;2024-03-17T04:34:30;21.15;;;12.23;;
79646;SDS011;69119;41.718;21.786;2024-03-17T04:36:56;22.42;;;12.45;;
79646;SDS011;69119;41.718;21.786;2024-03-17T04:39:22;17.98;;;10.63;;
79646;SDS011;69119;41.718;21.786;2024-03-17T04:41:49;17.40;;;11.48;;
79646;SDS011;69119;41.718;21.786;2024-03-17T04:44:15;21.73;;;11.32;;
79646;SDS011;69119;41.718;21.786;2024-03-17T04:46:42;22.58;;;11.60;;
79646;SDS011;69119;41.718;21.786;2024-03-17T04:49:08;17.83;;;10.85;;
79646;SDS011;69119;41.718;21.786;2024-03-17T04:51:34;17.95;;;10.73;;
79646;SDS011;69119;41.718;21.786;2024-03-17T04:54:03;18.88;;;11.45;;
79646;SDS011;69119;41.718;21.786;2024-03-17T04:56:31;17.95;;;12.52;;
79646;SDS011;69119;41.718;21.786;2024-03-17T04:58:57;19.73;;;11.80;;
79646;SDS011;69119;41.718;21.786;2024-03-17T05:01:23;18.20;;;11.63;;
79646;SDS011;69119;41.718;21.786;2024-03-17T05:03:52;22.73;;;13.82;;
79646;SDS011;69119;41.718;21.786;2024-03-17T05:06:18;21.63;;;15.07;;
79646;SDS011;69119;41.718;21.786;2024-03-17T05:08:44;35.97;;;22.90;;
79646;SDS011;69119;41.718;21.786;2024-03-17T05:11:10;22.17;;;14.40;;
79646;SDS011;69119;41.718;21.786;2024-03-17T05:13:39;22.35;;;13.85;;
79646;SDS011;69119;41.718;21.786;2024-03-17T05:16:05;24.23;;;15.27;;
79646;SDS011;69119;41.718;21.786;2024-03-17T05:18:31;20.42;;;13.77;;
79646;SDS011;69119;41.718;21.786;2024-03-17T05:20:58;22.45;;;15.82;;
79646;SDS011;69119;41.718;21.786;2024-03-17T05:23:25;20.65;;;14.00;;
79646;SDS011;69119;41.718;21.786;2024-03-17T05:25:52;21.23;;;12.23;;
79646;SDS011;69119;41.718;21.786;2024-03-17T05:28:18;20.80;;;11.38;;
79646;SDS011;69119;41.718;21.786;2024-03-17T05:30:44;16.83;;;10.52;;
79646;SDS011;69119;41.718;21.786;2024-03-17T05:33:10;19.88;;;12.48;;
79646;SDS011;69119;41.718;21.786;2024-03-17T05:35:36;21.63;;;14.27;;
79646;SDS011;69119;41.718;21.786;2024-03-17T05:38:03;20.17;;;12.45;;
79646;SDS011;69119;41.718;21.786;2024-03-17T05:40:29;23.30;;;14.43;;
79646;SDS011;69119;41.718;21.786;2024-03-17T05:42:58;29.45;;;16.35;;
79646;SDS011;69119;41.718;21.786;2024-03-17T05:46:19;21.52;;;13.82;;
79646;SDS011;69119;41.718;21.786;2024-03-17T05:48:45;16.08;;;10.52;;
79646;SDS011;69119;41.718;21.786;2024-03-17T05:51:12;17.25;;;11.52;;
79646;SDS011;69119;41.718;21.786;2024-03-17T05:53:38;15.82;;;10.38;;
79646;SDS011;69119;41.718;21.786;2024-03-17T05:56:05;16.65;;;10.70;;
79646;SDS011;69119;41.718;21.786;2024-03-17T05:58:32;18.55;;;11.35;;
79646;SDS011;69119;41.718;21.786;2024-03-17T06:01:01;17.60;;;11.85;;
79646;SDS011;69119;41.718;21.786;2024-03-17T06:03:27;17.88;;;11.88;;
79646;SDS011;69119;41.718;21.786;2024-03-17T06:05:53;20.58;;;11.90;;
79646;SDS011;69119;41.718;21.786;2024-03-17T06:08:19;19.23;;;11.85;;
79646;SDS011;69119;41.718;21.786;2024-03-17T06:10:47;23.13;;;14.00;;
79646;SDS011;69119;41.718;21.786;2024-03-17T06:13:14;17.42;;;13.02;;
79646;SDS011;69119;41.718;21.786;2024-03-17T06:15:42;18.70;;;12.25;;
79646;SDS011;69119;41.718;21.786;2024-03-17T06:18:09;18.90;;;12.30;;
79646;SDS011;69119;41.718;21.786;2024-03-17T06:20:42;17.90;;;11.65;;
79646;SDS011;69119;41.718;21.786;2024-03-17T06:23:08;18.23;;;12.07;;
79646;SDS011;69119;41.718;21.786;2024-03-17T06:28:10;20.15;;;12.93;;
79646;SDS011;69119;41.718;21.786;2024-03-17T06:30:41;18.08;;;12.35;;
79646;SDS011;69119;41.718;21.786;2024-03-17T06:33:10;17.88;;;12.10;;
79646;SDS011;69119;41.718;21.786;2024-03-17T06:35:36;17.58;;;11.85;;
79646;SDS011;69119;41.718;21.786;2024-03-17T06:38:03;16.63;;;11.57;;
79646;SDS011;69119;41.718;21.786;2024-03-17T06:40:29;15.63;;;10.45;;
79646;SDS011;69119;41.718;21.786;2024-03-17T06:42:55;16.30;;;10.60;;
79646;SDS011;69119;41.718;21.786;2024-03-17T06:45:22;21.35;;;14.63;;
79646;SDS011;69119;41.718;21.786;2024-03-17T06:47:49;16.85;;;11.07;;
79646;SDS011;69119;41.718;21.786;2024-03-17T06:50:15;17.63;;;12.15;;
79646;SDS011;69119;41.718;21.786;2024-03-17T06:52:41;18.20;;;12.90;;
79646;SDS011;69119;41.718;21.786;2024-03-17T06:55:07;17.50;;;13.00;;
79646;SDS011;69119;41.718;21.786;2024-03-17T07:00:00;19.67;;;13.50;;
79646;SDS011;69119;41.718;21.786;2024-03-17T07:02:26;18.52;;;12.13;;
79646;SDS011;69119;41.718;21.786;2024-03-17T07:04:52;20.80;;;14.90;;
79646;SDS011;69119;41.718;21.786;2024-03-17T07:07:18;20.63;;;14.30;;
79646;SDS011;69119;41.718;21.786;2024-03-17T07:09:46;17.67;;;13.05;;
79646;SDS011;69119;41.718;21.786;2024-03-17T07:12:12;25.33;;;16.88;;
79646;SDS011;69119;41.718;21.786;2024-03-17T07:14:38;24.65;;;17.17;;
79646;SDS011;69119;41.718;21.786;2024-03-17T07:17:04;22.40;;;16.15;;
79646;SDS011;69119;41.718;21.786;2024-03-17T07:19:32;25.27;;;17.40;;
79646;SDS011;69119;41.718;21.786;2024-03-17T07:21:59;25.92;;;18.05;;
79646;SDS011;69119;41.718;21.786;2024-03-17T07:24:25;21.80;;;16.33;;
79646;SDS011;69119;41.718;21.786;2024-03-17T07:26:52;22.40;;;16.10;;
79646;SDS011;69119;41.718;21.786;2024-03-17T07:29:18;25.10;;;17.05;;
79646;SDS011;69119;41.718;21.786;2024-03-17T07:31:44;21.02;;;15.63;;
79646;SDS011;69119;41.718;21.786;2024-03-17T07:34:10;22.52;;;16.58;;
79646;SDS011;69119;41.718;21.786;2024-03-17T07:36:36;18.52;;;12.13;;
79646;SDS011;69119;41.718;21.786;2024-03-17T07:41:29;17.25;;;11.50;;
79646;SDS011;69119;41.718;21.786;2024-03-17T07:43:55;13.43;;;8.82;;
79646;SDS011;69119;41.718;21.786;2024-03-17T07:46:21;13.68;;;7.82;;
79646;SDS011;69119;41.718;21.786;2024-03-17T07:48:47;14.02;;;10.50;;
79646;SDS011;69119;41.718;21.786;2024-03-17T07:51:14;15.32;;;9.90;;
79646;SDS011;69119;41.718;21.786;2024-03-17T07:53:44;15.30;;;11.43;;
79646;SDS011;69119;41.718;21.786;2024-03-17T07:56:12;14.43;;;10.77;;
79646;SDS011;69119;41.718;21.786;2024-03-17T07:58:39;17.55;;;10.32;;
79646;SDS011;69119;41.718;21.786;2024-03-17T08:01:06;16.30;;;10.60;;
79646;SDS011;69119;41.718;21.786;2024-03-17T08:03:34;15.75;;;11.07;;
79646;SDS011;69119;41.718;21.786;2024-03-17T08:06:01;14.48;;;10.45;;
79646;SDS011;69119;41.718;21.786;2024-03-17T08:08:28;15.43;;;8.27;;
79646;SDS011;69119;41.718;21.786;2024-03-17T08:10:54;13.85;;;9.60;;
79646;SDS011;69119;41.718;21.786;2024-03-17T08:13:20;13.18;;;9.70;;
79646;SDS011;69119;41.718;21.786;2024-03-17T08:15:54;14.18;;;9.10;;
79646;SDS011;69119;41.718;21.786;2024-03-17T08:18:21;13.32;;;9.85;;
79646;SDS011;69119;41.718;21.786;2024-03-17T08:20:47;13.95;;;9.05;;
79646;SDS011;69119;41.718;21.786;2024-03-17T08:23:13;12.95;;;9.40;;
79646;SDS011;69119;41.718;21.786;2024-03-17T08:25:39;13.90;;;9.35;;
79646;SDS011;69119;41.718;21.786;2024-03-17T08:28:05;14.15;;;10.48;;
79646;SDS011;69119;41.718;21.786;2024-03-17T08:30:35;12.07;;;8.43;;
79646;SDS011;69119;41.718;21.786;2024-03-17T08:35:27;13.35;;;7.82;;
79646;SDS011;69119;41.718;21.786;2024-03-17T08:37:53;11.50;;;7.28;;
79646;SDS011;69119;41.718;21.786;2024-03-17T08:40:20;11.85;;;6.25;;
79646;SDS011;69119;41.718;21.786;2024-03-17T08:42:46;11.05;;;7.15;;
79646;SDS011;69119;41.718;21.786;2024-03-17T08:45:12;10.68;;;6.88;;
79646;SDS011;69119;41.718;21.786;2024-03-17T08:50:06;11.00;;;5.75;;
79646;SDS011;69119;41.718;21.786;2024-03-17T08:52:33;10.82;;;6.05;;
79646;SDS011;69119;41.718;21.786;2024-03-17T08:55:00;12.23;;;7.80;;
79646;SDS011;69119;41.718;21.786;2024-03-17T08:57:34;10.27;;;7.05;;
79646;SDS011;69119;41.718;21.786;2024-03-17T09:00:00;9.27;;;5.07;;
79646;SDS011;69119;41.718;21.786;2024-03-17T09:02:26;9.90;;;6.75;;
79646;SDS011;69119;41.718;21.786;2024-03-17T09:04:53;10.95;;;7.05;;
79646;SDS011;69119;41.718;21.786;2024-03-17T09:09:48;10.95;;;6.85;;
79646;SDS011;69119;41.718;21.786;2024-03-17T09:12:14;10.70;;;7.05;;
79646;SDS011;69119;41.718;21.786;2024-03-17T09:14:41;9.57;;;5.55;;
79646;SDS011;69119;41.718;21.786;2024-03-17T09:17:07;10.93;;;7.78;;
79646;SDS011;69119;41.718;21.786;2024-03-17T09:19:33;9.15;;;5.65;;
79646;SDS011;69119;41.718;21.786;2024-03-17T09:21:59;9.32;;;6.47;;
79646;SDS011;69119;41.718;21.786;2024-03-17T09:24:25;9.80;;;6.55;;
79646;SDS011;69119;41.718;21.786;2024-03-17T09:26:52;9.88;;;6.93;;
79646;SDS011;69119;41.718;21.786;2024-03-17T09:29:18;9.98;;;4.95;;
79646;SDS011;69119;41.718;21.786;2024-03-17T09:31:44;11.25;;;6.53;;
79646;SDS011;69119;41.718;21.786;2024-03-17T09:34:10;9.15;;;5.20;;
79646;SDS011;69119;41.718;21.786;2024-03-17T09:36:36;9.13;;;5.35;;
79646;SDS011;69119;41.718;21.786;2024-03-17T09:39:02;9.80;;;7.13;;
79646;SDS011;69119;41.718;21.786;2024-03-17T09:41:30;11.15;;;7.05;;
79646;SDS011;69119;41.718;21.786;2024-03-17T09:46:23;9.60;;;5.25;;
79646;SDS011;69119;41.718;21.786;2024-03-17T09:48:49;10.20;;;6.50;;
79646;SDS011;69119;41.718;21.786;2024-03-17T09:53:41;12.93;;;7.40;;
79646;SDS011;69119;41.718;21.786;2024-03-17T09:56:11;10.65;;;6.85;;
79646;SDS011;69119;41.718;21.786;2024-03-17T09:58:38;13.80;;;7.18;;
79646;SDS011;69119;41.718;21.786;2024-03-17T10:06:20;11.68;;;6.38;;
79646;SDS011;69119;41.718;21.786;2024-03-17T10:08:50;13.15;;;7.63;;
79646;SDS011;69119;41.718;21.786;2024-03-17T10:11:17;9.57;;;5.53;;
79646;SDS011;69119;41.718;21.786;2024-03-17T10:13:44;13.52;;;7.15;;
79646;SDS011;69119;41.718;21.786;2024-03-17T10:16:28;15.30;;;8.43;;
79646;SDS011;69119;41.718;21.786;2024-03-17T10:19:07;10.95;;;6.95;;
79646;SDS011;69119;41.718;21.786;2024-03-17T10:21:35;11.15;;;6.90;;
79646;SDS011;69119;41.718;21.786;2024-03-17T10:24:05;11.73;;;7.50;;
79646;SDS011;69119;41.718;21.786;2024-03-17T10:26:53;10.80;;;5.78;;
79646;SDS011;69119;41.718;21.786;2024-03-17T10:31:48;7.60;;;4.15;;
79646;SDS011;69119;41.718;21.786;2024-03-17T10:34:14;11.57;;;6.55;;
79646;SDS011;69119;41.718;21.786;2024-03-17T10:36:47;11.80;;;5.97;;
79646;SDS011;69119;41.718;21.786;2024-03-17T10:39:19;9.48;;;5.93;;
79646;SDS011;69119;41.718;21.786;2024-03-17T10:41:54;9.65;;;5.05;;
79646;SDS011;69119;41.718;21.786;2024-03-17T10:44:22;8.82;;;4.53;;
79646;SDS011;69119;41.718;21.786;2024-03-17T10:46:48;9.05;;;3.67;;
79646;SDS011;69119;41.718;21.786;2024-03-17T10:49:15;7.95;;;2.88;;
79646;SDS011;69119;41.718;21.786;2024-03-17T10:51:42;8.32;;;4.20;;
79646;SDS011;69119;41.718;21.786;2024-03-17T10:54:14;7.28;;;3.70;;
79646;SDS011;69119;41.718;21.786;2024-03-17T10:56:46;8.20;;;4.00;;
79646;SDS011;69119;41.718;21.786;2024-03-17T10:59:12;8.48;;;4.68;;
79646;SDS011;69119;41.718;21.786;2024-03-17T11:01:40;9.05;;;5.43;;
79646;SDS011;69119;41.718;21.786;2024-03-17T11:04:08;9.15;;;5.47;;
79646;SDS011;69119;41.718;21.786;2024-03-17T11:06:38;13.20;;;6.18;;
79646;SDS011;69119;41.718;21.786;2024-03-17T11:09:04;9.98;;;4.65;;
79646;SDS011;69119;41.718;21.786;2024-03-17T11:11:36;9.05;;;4.88;;
79646;SDS011;69119;41.718;21.786;2024-03-17T11:14:19;11.85;;;5.88;;
79646;SDS011;69119;41.718;21.786;2024-03-17T11:16:45;12.85;;;6.28;;
79646;SDS011;69119;41.718;21.786;2024-03-17T11:19:15;13.07;;;9.38;;
79646;SDS011;69119;41.718;21.786;2024-03-17T11:21:42;10.70;;;7.28;;
79646;SDS011;69119;41.718;21.786;2024-03-17T11:24:19;10.23;;;5.20;;
79646;SDS011;69119;41.718;21.786;2024-03-17T11:26:45;9.02;;;5.38;;
79646;SDS011;69119;41.718;21.786;2024-03-17T11:29:29;7.88;;;3.42;;
79646;SDS011;69119;41.718;21.786;2024-03-17T11:31:57;7.93;;;3.95;;
79646;SDS011;69119;41.718;21.786;2024-03-17T11:34:27;8.07;;;3.42;;
79646;SDS011;69119;41.718;21.786;2024-03-17T11:36:55;10.93;;;5.80;;
79646;SDS011;69119;41.718;21.786;2024-03-17T11:39:21;10.65;;;4.30;;
79646;SDS011;69119;41.718;21.786;2024-03-17T11:42:07;9.52;;;4.97;;
79646;SDS011;69119;41.718;21.786;2024-03-17T11:44:41;9.43;;;4.78;;
79646;SDS011;69119;41.718;21.786;2024-03-17T11:47:08;10.20;;;4.65;;
79646;SDS011;69119;41.718;21.786;2024-03-17T11:49:34;10.95;;;5.22;;
79646;SDS011;69119;41.718;21.786;2024-03-17T11:52:05;7.55;;;3.28;;
79646;SDS011;69119;41.718;21.786;2024-03-17T11:54:32;9.35;;;4.82;;
79646;SDS011;69119;41.718;21.786;2024-03-17T11:57:06;9.85;;;5.38;;
79646;SDS011;69119;41.718;21.786;2024-03-17T11:59:32;7.53;;;3.05;;
79646;SDS011;69119;41.718;21.786;2024-03-17T12:04:24;9.70;;;5.53;;
79646;SDS011;69119;41.718;21.786;2024-03-17T12:06:57;11.18;;;4.90;;
79646;SDS011;69119;41.718;21.786;2024-03-17T12:12:00;8.38;;;4.68;;
79646;SDS011;69119;41.718;21.786;2024-03-17T12:14:27;9.90;;;5.22;;
79646;SDS011;69119;41.718;21.786;2024-03-17T12:16:54;9.75;;;4.50;;
79646;SDS011;69119;41.718;21.786;2024-03-17T12:19:21;10.38;;;4.25;;
79646;SDS011;69119;41.718;21.786;2024-03-17T12:21:48;8.20;;;4.32;;
79646;SDS011;69119;41.718;21.786;2024-03-17T12:24:18;9.68;;;4.53;;
79646;SDS011;69119;41.718;21.786;2024-03-17T12:26:45;10.63;;;6.32;;
79646;SDS011;69119;41.718;21.786;2024-03-17T12:31:55;11.13;;;5.07;;
79646;SDS011;69119;41.718;21.786;2024-03-17T12:34:23;9.90;;;4.88;;
79646;SDS011;69119;41.718;21.786;2024-03-17T12:36:51;9.43;;;5.70;;
79646;SDS011;69119;41.718;21.786;2024-03-17T12:39:19;10.48;;;5.45;;
79646;SDS011;69119;41.718;21.786;2024-03-17T12:42:00;8.40;;;4.30;;
79646;SDS011;69119;41.718;21.786;2024-03-17T12:44:27;8.95;;;3.97;;
79646;SDS011;69119;41.718;21.786;2024-03-17T12:47:00;7.75;;;3.28;;
79646;SDS011;69119;41.718;21.786;2024-03-17T12:49:27;8.90;;;4.53;;
79646;SDS011;69119;41.718;21.786;2024-03-17T12:51:53;8.23;;;3.92;;
79646;SDS011;69119;41.718;21.786;2024-03-17T12:56:45;7.72;;;3.60;;
79646;SDS011;69119;41.718;21.786;2024-03-17T12:59:40;9.07;;;4.25;;
79646;SDS011;69119;41.718;21.786;2024-03-17T13:02:42;9.30;;;5.60;;
79646;SDS011;69119;41.718;21.786;2024-03-17T13:05:17;11.35;;;5.63;;
79646;SDS011;69119;41.718;21.786;2024-03-17T13:07:45;10.18;;;5.05;;
79646;SDS011;69119;41.718;21.786;2024-03-17T13:10:14;9.00;;;5.57;;
79646;SDS011;69119;41.718;21.786;2024-03-17T13:12:42;9.93;;;6.35;;
79646;SDS011;69119;41.718;21.786;2024-03-17T13:15:17;9.63;;;6.75;;
79646;SDS011;69119;41.718;21.786;2024-03-17T13:17:43;11.60;;;6.13;;
79646;SDS011;69119;41.718;21.786;2024-03-17T13:22:36;10.00;;;4.78;;
79646;SDS011;69119;41.718;21.786;2024-03-17T13:25:04;7.25;;;3.63;;
79646;SDS011;69119;41.718;21.786;2024-03-17T13:27:31;8.68;;;4.78;;
79646;SDS011;69119;41.718;21.786;2024-03-17T13:29:57;8.48;;;4.13;;
79646;SDS011;69119;41.718;21.786;2024-03-17T13:32:23;7.38;;;3.35;;
79646;SDS011;69119;41.718;21.786;2024-03-17T13:34:49;8.90;;;5.63;;
79646;SDS011;69119;41.718;21.786;2024-03-17T13:37:16;6.45;;;3.13;;
79646;SDS011;69119;41.718;21.786;2024-03-17T13:39:42;8.18;;;3.88;;
79646;SDS011;69119;41.718;21.786;2024-03-17T13:42:08;7.85;;;3.83;;
79646;SDS011;69119;41.718;21.786;2024-03-17T13:44:34;8.02;;;4.43;;
79646;SDS011;69119;41.718;21.786;2024-03-17T13:47:00;7.07;;;3.80;;
79646;SDS011;69119;41.718;21.786;2024-03-17T13:49:26;8.85;;;4.78;;
79646;SDS011;69119;41.718;21.786;2024-03-17T13:51:56;8.93;;;4.63;;
79646;SDS011;69119;41.718;21.786;2024-03-17T13:54:22;8.30;;;3.90;;
79646;SDS011;69119;41.718;21.786;2024-03-17T13:56:48;7.35;;;3.53;;
79646;SDS011;69119;41.718;21.786;2024-03-17T13:59:14;10.15;;;4.95;;
79646;SDS011;69119;41.718;21.786;2024-03-17T14:01:41;9.02;;;4.63;;
79646;SDS011;69119;41.718;21.786;2024-03-17T14:04:14;8.10;;;4.32;;
79646;SDS011;69119;41.718;21.786;2024-03-17T14:06:44;9.13;;;5.05;;
79646;SDS011;69119;41.718;21.786;2024-03-17T14:09:11;10.82;;;5.05;;
79646;SDS011;69119;41.718;21.786;2024-03-17T14:11:37;8.88;;;4.70;;
79646;SDS011;69119;41.718;21.786;2024-03-17T14:14:06;12.77;;;4.93;;
79646;SDS011;69119;41.718;21.786;2024-03-17T14:16:33;8.88;;;4.88;;
79646;SDS011;69119;41.718;21.786;2024-03-17T14:21:25;11.35;;;6.78;;
79646;SDS011;69119;41.718;21.786;2024-03-17T14:23:52;10.13;;;5.35;;
79646;SDS011;69119;41.718;21.786;2024-03-17T14:26:18;12.10;;;6.15;;
79646;SDS011;69119;41.718;21.786;2024-03-17T14:28:44;12.02;;;6.05;;
79646;SDS011;69119;41.718;21.786;2024-03-17T14:31:11;12.57;;;6.30;;
79646;SDS011;69119;41.718;21.786;2024-03-17T14:33:37;7.57;;;3.47;;
79646;SDS011;69119;41.718;21.786;2024-03-17T14:36:03;9.57;;;5.57;;
79646;SDS011;69119;41.718;21.786;2024-03-17T14:38:29;9.00;;;3.90;;
79646;SDS011;69119;41.718;21.786;2024-03-17T14:40:55;10.63;;;5.07;;
79646;SDS011;69119;41.718;21.786;2024-03-17T14:43:21;9.77;;;4.63;;
79646;SDS011;69119;41.718;21.786;2024-03-17T14:45:48;8.95;;;4.72;;
79646;SDS011;69119;41.718;21.786;2024-03-17T14:48:14;9.00;;;4.43;;
79646;SDS011;69119;41.718;21.786;2024-03-17T14:50:40;7.57;;;3.30;;
79646;SDS011;69119;41.718;21.786;2024-03-17T14:53:06;10.88;;;4.45;;
79646;SDS011;69119;41.718;21.786;2024-03-17T14:55:33;8.95;;;4.35;;
79646;SDS011;69119;41.718;21.786;2024-03-17T14:57:59;7.63;;;2.95;;
79646;SDS011;69119;41.718;21.786;2024-03-17T15:00:28;8.05;;;3.60;;
79646;SDS011;69119;41.718;21.786;2024-03-17T15:02:56;8.18;;;4.18;;
79646;SDS011;69119;41.718;21.786;2024-03-17T15:05:22;9.27;;;3.92;;
79646;SDS011;69119;41.718;21.786;2024-03-17T15:07:50;9.63;;;5.53;;
79646;SDS011;69119;41.718;21.786;2024-03-17T15:10:16;8.68;;;3.60;;
79646;SDS011;69119;41.718;21.786;2024-03-17T15:12:45;8.60;;;5.32;;
79646;SDS011;69119;41.718;21.786;2024-03-17T15:17:37;11.30;;;5.65;;
79646;SDS011;69119;41.718;21.786;2024-03-17T15:20:05;9.45;;;4.20;;
79646;SDS011;69119;41.718;21.786;2024-03-17T15:22:41;34.10;;;16.40;;